Time;durP1;ratioP1;P1;durP2;ratioP2;P2;SDS_P1;SDS_P2;PMS_P1;PMS_P2;Temp;Humidity;BMP_temperature;BMP_pressure;BME280_temperature;BME280_humidity;BME280_pressure;Samples;Min_cycle;Max_cycle;Signal;HPM_P1;HPM_P2
2021/12/18 00:01:17;;;;;;;;;;;19.10;33.10;;;;;;487350;243;1061;-77
2021/12/18 00:03:18;;;;;;;;;;;19.10;33.10;;;;;;487346;244;1344;-77
2021/12/18 00:05:19;;;;;;;;;;;19.20;33.00;;;;;;487378;243;2107;-77
2021/12/18 00:07:20;;;;;;;;;;;19.20;32.90;;;;;;487346;243;956;-77
2021/12/18 00:09:22;;;;;;;;;;;19.10;32.90;;;;;;487353;243;1206;-77
2021/12/18 00:11:23;;;;;;;;;;;19.10;33.00;;;;;;487342;243;960;-77
2021/12/18 00:13:24;;;;;;;;;;;19.10;33.00;;;;;;487351;243;962;-77
2021/12/18 00:15:25;;;;;;;;;;;19.00;33.00;;;;;;487372;243;971;-77
2021/12/18 00:17:27;;;;;;;;;;;19.00;33.10;;;;;;487334;243;1131;-77
2021/12/18 00:19:28;;;;;;;;;;;19.00;33.10;;;;;;487520;243;1056;-76
2021/12/18 00:21:30;;;;;;;;;;;19.00;33.00;;;;;;487318;243;1135;-76
2021/12/18 00:23:31;;;;;;;;;;;19.00;33.00;;;;;;487300;242;2199;-76
2021/12/18 00:25:32;;;;;;;;;;;19.10;33.00;;;;;;487327;243;1216;-76
2021/12/18 00:27:33;;;;;;;;;;;19.00;32.90;;;;;;487380;242;1122;-77
2021/12/18 00:29:35;;;;;;;;;;;19.00;33.00;;;;;;487404;242;1062;-77
2021/12/18 00:31:36;;;;;;;;;;;19.00;33.00;;;;;;487254;243;1101;-77
2021/12/18 00:33:37;;;;;;;;;;;19.10;32.90;;;;;;487322;243;1101;-77
2021/12/18 00:35:39;;;;;;;;;;;19.10;32.90;;;;;;487317;244;1197;-76
2021/12/18 00:37:40;;;;;;;;;;;19.10;32.90;;;;;;487348;243;1083;-77
2021/12/18 00:39:50;;;;;;;;;;;19.00;32.90;;;;;;487299;245;1162;-77
2021/12/18 00:42:00;;;;;;;;;;;19.00;32.90;;;;;;486790;244;1431;-77
2021/12/18 00:44:04;;;;;;;;;;;19.00;32.90;;;;;;486650;244;2193;-77
2021/12/18 00:46:04;;;;;;;;;;;19.00;32.90;;;;;;487328;243;1294;-77
2021/12/18 00:48:06;;;;;;;;;;;19.00;32.90;;;;;;487284;245;1260;-77
2021/12/18 00:50:07;;;;;;;;;;;19.00;33.00;;;;;;487387;242;1102;-77
2021/12/18 00:52:08;;;;;;;;;;;19.10;33.00;;;;;;487372;244;1197;-77
2021/12/18 00:54:10;;;;;;;;;;;19.00;32.90;;;;;;487360;243;1153;-77
2021/12/18 00:56:11;;;;;;;;;;;19.00;33.00;;;;;;487523;242;1153;-77
2021/12/18 00:58:12;;;;;;;;;;;18.90;33.00;;;;;;487279;244;1128;-77
2021/12/18 01:00:14;;;;;;;;;;;18.90;33.10;;;;;;487431;243;1137;-77
2021/12/18 01:02:15;;;;;;;;;;;18.80;33.10;;;;;;487338;243;1079;-77
2021/12/18 01:04:17;;;;;;;;;;;18.80;33.10;;;;;;487371;243;2190;-77
2021/12/18 01:06:18;;;;;;;;;;;18.80;33.20;;;;;;487342;243;1226;-77
2021/12/18 01:08:19;;;;;;;;;;;18.80;33.10;;;;;;487371;244;1162;-77
2021/12/18 01:10:36;;;;;;;;;;;18.80;33.20;;;;;;487436;243;1149;-77
2021/12/18 01:12:32;;;;;;;;;;;18.80;33.20;;;;;;486821;244;1428;-77
2021/12/18 01:14:45;;;;;;;;;;;18.90;33.20;;;;;;487098;244;1456;-77
2021/12/18 01:16:45;;;;;;;;;;;18.90;33.10;;;;;;486696;244;1506;-77
2021/12/18 01:23:24;;;;;;;;;;;19.00;33.10;;;;;;487375;242;1037;-76
2021/12/18 01:25:26;;;;;;;;;;;18.90;33.10;;;;;;487399;243;2186;-77
2021/12/18 01:27:27;;;;;;;;;;;18.90;33.10;;;;;;487208;243;1220;-77
2021/12/18 01:29:28;;;;;;;;;;;18.90;33.10;;;;;;487367;244;980;-77
2021/12/18 01:31:30;;;;;;;;;;;18.90;33.00;;;;;;487272;243;1173;-77
2021/12/18 01:33:31;;;;;;;;;;;18.90;33.00;;;;;;487318;243;1058;-77
2021/12/18 01:35:32;;;;;;;;;;;19.00;33.00;;;;;;487324;243;1476;-76
2021/12/18 01:37:34;;;;;;;;;;;19.10;32.90;;;;;;487238;244;1142;-77
2021/12/18 01:39:35;;;;;;;;;;;19.10;32.80;;;;;;487347;244;1160;-77
2021/12/18 01:41:52;;;;;;;;;;;19.10;32.80;;;;;;487317;243;1123;-77
2021/12/18 01:44:32;;;;;;;;;;;19.10;32.90;;;;;;486509;244;1412;-77
2021/12/18 01:52:59;;;;;;;;;;;19.00;33.00;;;;;;487330;242;1331;-76
2021/12/18 01:55:00;;;;;;;;;;;19.00;33.00;;;;;;487459;242;1417;-76
2021/12/18 01:57:01;;;;;;;;;;;19.00;33.10;;;;;;487687;243;1221;-76
2021/12/18 01:59:02;;;;;;;;;;;19.00;33.10;;;;;;487329;244;1009;-76
2021/12/18 02:01:04;;;;;;;;;;;18.90;33.00;;;;;;487286;243;981;-76
2021/12/18 02:03:05;;;;;;;;;;;18.90;33.00;;;;;;487430;244;1209;-76
2021/12/18 02:05:06;;;;;;;;;;;19.00;33.10;;;;;;487351;244;2191;-77
2021/12/18 02:07:08;;;;;;;;;;;19.00;33.10;;;;;;487358;243;1247;-77
2021/12/18 02:09:09;;;;;;;;;;;18.90;33.10;;;;;;487374;244;988;-76
2021/12/18 02:11:16;;;;;;;;;;;19.00;33.10;;;;;;487338;243;1190;-77
2021/12/18 02:13:25;;;;;;;;;;;19.00;33.10;;;;;;487230;244;1463;-77
2021/12/18 02:20:11;;;;;;;;;;;19.10;32.90;;;;;;487391;242;944;-77
2021/12/18 02:22:04;;;;;;;;;;;19.20;32.90;;;;;;486901;244;1507;-77
2021/12/18 02:24:05;;;;;;;;;;;19.30;32.70;;;;;;487371;243;967;-77
2021/12/18 02:26:07;;;;;;;;;;;19.20;32.60;;;;;;487445;243;2249;-77
2021/12/18 02:28:15;;;;;;;;;;;19.30;32.70;;;;;;487372;243;1046;-76
2021/12/18 02:30:11;;;;;;;;;;;19.20;32.70;;;;;;486954;243;1412;-76
2021/12/18 02:32:11;;;;;;;;;;;19.30;32.70;;;;;;487458;242;1359;-77
2021/12/18 02:34:17;;;;;;;;;;;19.30;32.60;;;;;;487499;243;1114;-77
2021/12/18 02:36:22;;;;;;;;;;;19.40;32.50;;;;;;487179;244;1528;-77
2021/12/18 02:38:19;;;;;;;;;;;19.40;32.60;;;;;;487029;244;1430;-77
2021/12/18 02:42:37;;;;;;;;;;;19.40;32.60;;;;;;487352;242;1092;-77
2021/12/18 02:44:39;;;;;;;;;;;19.40;32.50;;;;;;487384;243;2177;-77
2021/12/18 02:46:40;;;;;;;;;;;19.40;32.50;;;;;;487320;243;1213;-77
2021/12/18 02:48:42;;;;;;;;;;;19.40;32.50;;;;;;487388;243;992;-77
2021/12/18 02:50:43;;;;;;;;;;;19.20;32.60;;;;;;487411;243;1093;-77
2021/12/18 02:52:44;;;;;;;;;;;19.10;32.70;;;;;;487389;243;941;-76
2021/12/18 02:54:46;;;;;;;;;;;19.50;32.40;;;;;;487443;243;1080;-77
2021/12/18 02:56:47;;;;;;;;;;;19.40;32.50;;;;;;487291;243;1197;-77
2021/12/18 02:58:50;;;;;;;;;;;19.40;32.30;;;;;;487420;243;999;-77
2021/12/18 03:00:50;;;;;;;;;;;19.30;32.50;;;;;;487250;244;1408;-76
2021/12/18 03:02:51;;;;;;;;;;;19.20;32.70;;;;;;487403;243;993;-77
2021/12/18 03:04:57;;;;;;;;;;;19.20;32.80;;;;;;487391;243;2190;-77
2021/12/18 03:06:58;;;;;;;;;;;19.30;32.60;;;;;;487081;244;1428;-77
2021/12/18 03:09:11;;;;;;;;;;;19.30;32.60;;;;;;487053;244;1417;-77
2021/12/18 03:23:00;;;;;;;;;;;19.20;32.60;;;;;;487355;242;1174;-76
2021/12/18 03:24:54;;;;;;;;;;;19.60;32.40;;;;;;486156;244;2127;-77
2021/12/18 03:26:44;;;;;;;;;;;19.50;32.20;;;;;;486566;244;1498;-77
2021/12/18 03:28:45;;;;;;;;;;;19.40;32.40;;;;;;487407;243;1065;-77
2021/12/18 03:30:47;;;;;;;;;;;19.30;32.60;;;;;;487326;243;974;-77
2021/12/18 03:32:48;;;;;;;;;;;19.20;32.80;;;;;;487376;243;1047;-77
2021/12/18 03:34:49;;;;;;;;;;;19.20;32.80;;;;;;487372;243;1051;-77
2021/12/18 03:36:51;;;;;;;;;;;19.40;32.40;;;;;;487379;243;1194;-77
2021/12/18 03:38:52;;;;;;;;;;;19.40;32.50;;;;;;487358;242;1509;-77
2021/12/18 03:40:53;;;;;;;;;;;19.30;32.70;;;;;;487350;243;1159;-77
2021/12/18 03:42:55;;;;;;;;;;;19.30;32.70;;;;;;487341;242;1123;-77
2021/12/18 03:44:56;;;;;;;;;;;19.30;32.60;;;;;;487489;243;2179;-77
2021/12/18 03:46:57;;;;;;;;;;;19.30;32.60;;;;;;487265;245;1204;-77
2021/12/18 03:48:59;;;;;;;;;;;19.50;32.40;;;;;;487405;242;961;-77
2021/12/18 03:51:00;;;;;;;;;;;19.40;32.50;;;;;;487333;241;1098;-77
2021/12/18 03:53:01;;;;;;;;;;;19.20;32.70;;;;;;487263;242;1185;-76
2021/12/18 03:55:03;;;;;;;;;;;19.20;32.80;;;;;;487368;243;962;-77
2021/12/18 03:57:04;;;;;;;;;;;19.40;32.60;;;;;;487400;243;1223;-77
2021/12/18 03:59:05;;;;;;;;;;;19.60;32.30;;;;;;487613;242;993;-77
2021/12/18 04:01:06;;;;;;;;;;;19.40;32.50;;;;;;487395;243;1141;-77
2021/12/18 04:03:08;;;;;;;;;;;19.30;32.70;;;;;;487304;243;1074;-77
2021/12/18 04:05:09;;;;;;;;;;;19.20;32.90;;;;;;487369;244;2171;-77
2021/12/18 04:07:11;;;;;;;;;;;19.40;32.70;;;;;;487332;242;1213;-77
2021/12/18 04:09:12;;;;;;;;;;;19.30;32.60;;;;;;487391;243;969;-77
2021/12/18 04:11:13;;;;;;;;;;;19.30;32.70;;;;;;487355;242;1223;-77
2021/12/18 04:13:14;;;;;;;;;;;19.40;32.60;;;;;;487460;243;1202;-77
2021/12/18 04:15:16;;;;;;;;;;;19.30;32.50;;;;;;487463;242;1067;-77
2021/12/18 04:17:17;;;;;;;;;;;19.40;32.70;;;;;;487395;243;1209;-77
2021/12/18 04:19:19;;;;;;;;;;;19.40;32.50;;;;;;487439;243;971;-77
2021/12/18 04:21:20;;;;;;;;;;;19.30;32.60;;;;;;487315;243;1109;-77
2021/12/18 04:23:22;;;;;;;;;;;19.20;32.70;;;;;;487372;243;1102;-77
2021/12/18 04:25:23;;;;;;;;;;;19.20;32.70;;;;;;487369;243;2194;-77
2021/12/18 04:27:24;;;;;;;;;;;19.40;32.50;;;;;;487248;243;1216;-77
2021/12/18 04:29:26;;;;;;;;;;;19.30;32.50;;;;;;487340;243;1159;-77
2021/12/18 04:31:27;;;;;;;;;;;19.20;32.60;;;;;;487321;242;1226;-77
2021/12/18 04:33:28;;;;;;;;;;;19.10;32.80;;;;;;487361;243;1125;-77
2021/12/18 04:35:30;;;;;;;;;;;19.10;32.80;;;;;;487379;242;1117;-77
2021/12/18 04:37:31;;;;;;;;;;;19.20;32.60;;;;;;487417;243;1099;-77
2021/12/18 04:39:32;;;;;;;;;;;19.20;32.60;;;;;;487431;243;1032;-77
2021/12/18 04:41:40;;;;;;;;;;;19.30;32.70;;;;;;487233;243;1217;-76
2021/12/18 04:43:39;;;;;;;;;;;19.50;32.40;;;;;;487154;244;1532;-77
2021/12/18 04:45:40;;;;;;;;;;;19.30;32.40;;;;;;487400;242;2190;-77
2021/12/18 04:47:41;;;;;;;;;;;19.50;32.40;;;;;;487376;243;1053;-77
2021/12/18 04:49:43;;;;;;;;;;;19.60;32.10;;;;;;487463;244;1180;-77
2021/12/18 04:51:45;;;;;;;;;;;19.40;32.10;;;;;;487252;244;1229;-77
2021/12/18 04:53:45;;;;;;;;;;;19.30;32.50;;;;;;487359;244;1420;-77
2021/12/18 04:55:47;;;;;;;;;;;19.70;32.30;;;;;;487378;243;1242;-77
2021/12/18 04:57:49;;;;;;;;;;;19.50;32.10;;;;;;487291;243;1136;-77
2021/12/18 04:59:49;;;;;;;;;;;19.30;32.30;;;;;;487380;243;1328;-77
2021/12/18 05:01:52;;;;;;;;;;;19.30;32.50;;;;;;487277;243;1240;-77
2021/12/18 05:03:52;;;;;;;;;;;19.20;32.60;;;;;;487346;243;1356;-76
2021/12/18 05:05:53;;;;;;;;;;;19.20;32.70;;;;;;487312;243;2218;-76
2021/12/18 05:07:56;;;;;;;;;;;19.20;32.70;;;;;;487378;243;1193;-77
2021/12/18 05:09:57;;;;;;;;;;;19.10;32.80;;;;;;487384;243;1060;-77
2021/12/18 05:11:58;;;;;;;;;;;19.20;32.60;;;;;;487250;243;1226;-77
2021/12/18 05:14:00;;;;;;;;;;;19.20;32.60;;;;;;487323;244;1007;-77
2021/12/18 05:16:01;;;;;;;;;;;19.20;32.60;;;;;;487286;243;989;-76
2021/12/18 05:18:02;;;;;;;;;;;19.30;32.50;;;;;;487352;243;1061;-77
2021/12/18 05:20:04;;;;;;;;;;;19.30;32.50;;;;;;487392;244;963;-77
2021/12/18 05:22:05;;;;;;;;;;;19.20;32.50;;;;;;487225;245;1140;-77
2021/12/18 05:24:06;;;;;;;;;;;19.10;32.60;;;;;;487639;243;1153;-77
2021/12/18 05:26:08;;;;;;;;;;;19.10;32.70;;;;;;487394;243;2135;-77
2021/12/18 05:28:09;;;;;;;;;;;19.50;32.10;;;;;;487374;243;1121;-77
2021/12/18 05:30:10;;;;;;;;;;;19.40;32.20;;;;;;487258;244;958;-77
2021/12/18 05:32:12;;;;;;;;;;;19.20;32.30;;;;;;487354;243;1201;-77
2021/12/18 05:34:20;;;;;;;;;;;19.10;32.50;;;;;;487407;243;1079;-77
2021/12/18 05:36:29;;;;;;;;;;;19.10;32.60;;;;;;486872;244;1451;-77
2021/12/18 05:38:26;;;;;;;;;;;19.30;32.20;;;;;;487114;244;1325;-77
2021/12/18 05:40:27;;;;;;;;;;;19.20;32.40;;;;;;487387;244;1135;-77
2021/12/18 05:42:28;;;;;;;;;;;19.30;32.30;;;;;;487403;243;1127;-77
2021/12/18 05:44:30;;;;;;;;;;;19.30;32.30;;;;;;487371;244;1116;-77
2021/12/18 05:46:31;;;;;;;;;;;19.20;32.30;;;;;;487312;243;2171;-76
2021/12/18 05:48:32;;;;;;;;;;;19.30;32.20;;;;;;487081;245;1223;-77
2021/12/18 05:50:34;;;;;;;;;;;19.40;32.00;;;;;;487254;243;1186;-77
2021/12/18 05:52:35;;;;;;;;;;;19.30;32.10;;;;;;487284;243;1141;-77
2021/12/18 05:54:36;;;;;;;;;;;19.20;32.30;;;;;;487268;243;973;-77
2021/12/18 05:56:38;;;;;;;;;;;19.20;32.40;;;;;;487256;244;1214;-77
2021/12/18 05:58:41;;;;;;;;;;;19.30;32.00;;;;;;487365;243;1114;-77
2021/12/18 06:00:40;;;;;;;;;;;19.20;32.10;;;;;;487240;244;1436;-77
2021/12/18 06:02:41;;;;;;;;;;;19.10;32.20;;;;;;487286;242;1069;-77
2021/12/18 06:04:43;;;;;;;;;;;19.00;32.60;;;;;;487384;242;1094;-77
2021/12/18 06:06:44;;;;;;;;;;;19.00;32.60;;;;;;487422;243;2186;-77
2021/12/18 06:08:45;;;;;;;;;;;19.00;32.50;;;;;;487401;243;1007;-77
2021/12/18 06:10:47;;;;;;;;;;;19.10;32.50;;;;;;487255;245;1143;-77
2021/12/18 06:12:48;;;;;;;;;;;19.10;32.40;;;;;;487367;243;1150;-77
2021/12/18 06:14:49;;;;;;;;;;;19.10;32.40;;;;;;487471;243;1052;-77
2021/12/18 06:16:51;;;;;;;;;;;19.10;32.40;;;;;;487384;243;1200;-77
2021/12/18 06:18:52;;;;;;;;;;;19.10;32.30;;;;;;487303;243;1060;-77
2021/12/18 06:20:53;;;;;;;;;;;19.40;32.30;;;;;;487335;243;1092;-77
2021/12/18 06:22:55;;;;;;;;;;;19.40;31.90;;;;;;487230;245;1272;-76
2021/12/18 06:24:56;;;;;;;;;;;19.20;32.20;;;;;;487368;243;1063;-77
2021/12/18 06:26:57;;;;;;;;;;;19.10;32.40;;;;;;487269;243;2190;-77
2021/12/18 06:28:59;;;;;;;;;;;19.20;32.10;;;;;;487304;243;1116;-77
2021/12/18 06:31:01;;;;;;;;;;;19.20;32.20;;;;;;487283;244;1238;-77
2021/12/18 06:33:02;;;;;;;;;;;19.10;32.30;;;;;;487363;243;966;-77
2021/12/18 06:35:03;;;;;;;;;;;19.10;32.40;;;;;;487436;243;970;-77
2021/12/18 06:37:05;;;;;;;;;;;19.10;32.40;;;;;;487357;242;1184;-77
2021/12/18 06:39:06;;;;;;;;;;;19.10;32.30;;;;;;487359;244;1084;-77
2021/12/18 06:41:07;;;;;;;;;;;19.10;32.40;;;;;;487235;240;1233;-77
2021/12/18 06:43:08;;;;;;;;;;;19.10;32.40;;;;;;487317;242;1226;-77
2021/12/18 06:45:10;;;;;;;;;;;19.10;32.40;;;;;;487377;243;962;-77
2021/12/18 06:47:11;;;;;;;;;;;19.00;32.20;;;;;;487258;242;2226;-77
2021/12/18 06:49:12;;;;;;;;;;;19.10;32.40;;;;;;487396;244;974;-77
2021/12/18 06:51:14;;;;;;;;;;;19.20;32.20;;;;;;487366;243;1172;-76
2021/12/18 06:53:15;;;;;;;;;;;19.20;32.10;;;;;;487421;243;1106;-76
2021/12/18 06:55:17;;;;;;;;;;;19.00;32.30;;;;;;487446;243;1060;-76
2021/12/18 06:57:22;;;;;;;;;;;18.90;32.40;;;;;;487263;243;1093;-77
2021/12/18 06:59:19;;;;;;;;;;;19.70;31.70;;;;;;487081;244;1449;-76
2021/12/18 07:01:21;;;;;;;;;;;19.40;31.70;;;;;;487155;244;1194;-77
2021/12/18 07:03:22;;;;;;;;;;;19.20;31.90;;;;;;487275;243;1037;-77
2021/12/18 07:05:23;;;;;;;;;;;19.10;32.00;;;;;;487453;243;954;-76
2021/12/18 07:07:25;;;;;;;;;;;19.00;32.20;;;;;;487330;244;2202;-77
2021/12/18 07:09:26;;;;;;;;;;;19.00;32.20;;;;;;487391;243;1038;-77
2021/12/18 07:11:27;;;;;;;;;;;19.00;32.20;;;;;;487283;243;1279;-77
2021/12/18 07:13:29;;;;;;;;;;;19.00;32.20;;;;;;487202;245;1156;-77
2021/12/18 07:15:30;;;;;;;;;;;19.00;32.30;;;;;;487256;244;988;-77
2021/12/18 07:17:31;;;;;;;;;;;19.00;32.30;;;;;;487276;243;1159;-77
2021/12/18 07:19:33;;;;;;;;;;;19.10;32.10;;;;;;487393;243;956;-77
2021/12/18 07:21:34;;;;;;;;;;;19.30;31.90;;;;;;487334;240;1300;-77
2021/12/18 07:23:35;;;;;;;;;;;19.30;31.90;;;;;;487400;244;1059;-77
2021/12/18 07:25:37;;;;;;;;;;;19.10;32.10;;;;;;487374;244;1022;-77
2021/12/18 07:27:38;;;;;;;;;;;19.10;32.10;;;;;;487335;242;2189;-77
2021/12/18 07:29:39;;;;;;;;;;;19.50;31.60;;;;;;487400;243;1151;-77
2021/12/18 07:31:41;;;;;;;;;;;19.30;31.60;;;;;;487305;242;1136;-77
2021/12/18 07:33:43;;;;;;;;;;;19.10;32.00;;;;;;487485;242;1069;-77
2021/12/18 07:35:43;;;;;;;;;;;19.00;32.30;;;;;;487392;243;1480;-77
2021/12/18 07:37:45;;;;;;;;;;;18.90;32.30;;;;;;487287;242;1262;-77
2021/12/18 07:39:46;;;;;;;;;;;18.90;32.40;;;;;;487444;242;1024;-77
2021/12/18 07:41:47;;;;;;;;;;;18.90;32.40;;;;;;487286;243;1185;-77
2021/12/18 07:43:49;;;;;;;;;;;18.90;32.30;;;;;;487327;243;1121;-76
2021/12/18 07:45:50;;;;;;;;;;;19.00;32.40;;;;;;487303;243;1183;-77
2021/12/18 07:47:51;;;;;;;;;;;19.10;32.20;;;;;;487403;243;2167;-77
2021/12/18 07:49:53;;;;;;;;;;;19.10;32.20;;;;;;487384;243;950;-77
2021/12/18 07:51:59;;;;;;;;;;;19.20;32.10;;;;;;487356;243;947;-77
2021/12/18 07:53:55;;;;;;;;;;;19.30;31.80;;;;;;487057;244;1388;-77
2021/12/18 07:55:57;;;;;;;;;;;19.10;32.00;;;;;;487333;242;947;-77
2021/12/18 07:57:58;;;;;;;;;;;19.10;32.20;;;;;;487400;242;1023;-76
2021/12/18 07:59:59;;;;;;;;;;;19.30;32.10;;;;;;487385;242;1147;-76
2021/12/18 08:02:01;;;;;;;;;;;19.20;32.00;;;;;;487293;242;1097;-77
2021/12/18 08:04:02;;;;;;;;;;;19.20;31.90;;;;;;487343;242;998;-77
2021/12/18 08:06:04;;;;;;;;;;;19.00;32.10;;;;;;487360;242;1095;-77
2021/12/18 08:08:05;;;;;;;;;;;19.10;32.20;;;;;;487415;242;2132;-77
2021/12/18 08:10:06;;;;;;;;;;;19.10;32.20;;;;;;487313;244;1031;-77
2021/12/18 08:12:08;;;;;;;;;;;19.10;32.20;;;;;;487311;242;1023;-77
2021/12/18 08:14:09;;;;;;;;;;;19.30;31.90;;;;;;487387;242;1060;-77
2021/12/18 08:16:10;;;;;;;;;;;19.20;32.00;;;;;;487287;240;1180;-77
2021/12/18 08:18:12;;;;;;;;;;;19.20;32.10;;;;;;487340;242;1069;-77
2021/12/18 08:20:13;;;;;;;;;;;19.20;32.00;;;;;;487371;242;1226;-77
2021/12/18 08:22:14;;;;;;;;;;;19.20;31.90;;;;;;487360;243;1111;-77
2021/12/18 08:24:16;;;;;;;;;;;19.30;31.70;;;;;;487363;243;988;-77
2021/12/18 08:26:17;;;;;;;;;;;19.20;31.90;;;;;;487305;243;2194;-77
2021/12/18 08:28:18;;;;;;;;;;;19.10;32.20;;;;;;487177;245;956;-77
2021/12/18 08:30:20;;;;;;;;;;;19.70;31.40;;;;;;487352;243;1156;-77
2021/12/18 08:32:22;;;;;;;;;;;19.40;31.50;;;;;;487312;243;1212;-77
2021/12/18 08:34:23;;;;;;;;;;;19.40;31.70;;;;;;487351;238;1400;-77
2021/12/18 08:36:24;;;;;;;;;;;19.20;32.00;;;;;;487670;242;1399;-76
2021/12/18 08:38:25;;;;;;;;;;;19.10;32.10;;;;;;487374;244;1045;-77
2021/12/18 08:40:27;;;;;;;;;;;19.30;31.90;;;;;;487352;243;958;-77
2021/12/18 08:42:28;;;;;;;;;;;19.20;31.90;;;;;;487322;245;1212;-77
2021/12/18 08:44:29;;;;;;;;;;;19.10;32.10;;;;;;487493;242;1136;-77
2021/12/18 08:46:31;;;;;;;;;;;19.10;32.10;;;;;;487308;243;2181;-77
2021/12/18 08:48:32;;;;;;;;;;;19.10;32.20;;;;;;487275;245;1096;-77
2021/12/18 08:50:33;;;;;;;;;;;19.10;32.20;;;;;;487423;243;994;-77
2021/12/18 08:52:35;;;;;;;;;;;19.20;32.00;;;;;;487414;243;1205;-77
2021/12/18 08:54:36;;;;;;;;;;;19.30;32.00;;;;;;487359;244;1020;-77
2021/12/18 08:56:37;;;;;;;;;;;19.10;32.10;;;;;;487349;243;1142;-77
2021/12/18 08:58:39;;;;;;;;;;;19.10;32.20;;;;;;487409;242;1102;-77
2021/12/18 09:00:40;;;;;;;;;;;19.30;32.00;;;;;;487391;243;1165;-77
2021/12/18 09:02:42;;;;;;;;;;;19.30;31.90;;;;;;487279;240;1156;-77
2021/12/18 09:04:43;;;;;;;;;;;19.20;32.00;;;;;;487359;242;1122;-77
2021/12/18 09:06:44;;;;;;;;;;;19.10;32.10;;;;;;487329;243;2111;-77
2021/12/18 09:08:45;;;;;;;;;;;19.10;32.20;;;;;;487301;245;1185;-76
2021/12/18 09:10:47;;;;;;;;;;;19.10;32.30;;;;;;487483;243;959;-76
2021/12/18 09:12:48;;;;;;;;;;;19.10;32.30;;;;;;487242;244;1237;-76
2021/12/18 09:14:49;;;;;;;;;;;19.10;32.20;;;;;;487370;243;960;-76
2021/12/18 09:16:52;;;;;;;;;;;19.10;32.10;;;;;;487266;243;1153;-76
2021/12/18 09:18:52;;;;;;;;;;;19.10;32.20;;;;;;487335;244;1351;-77
2021/12/18 09:20:53;;;;;;;;;;;19.30;32.10;;;;;;487541;242;1024;-76
2021/12/18 09:22:55;;;;;;;;;;;19.70;31.30;;;;;;487388;243;969;-77
2021/12/18 09:24:56;;;;;;;;;;;19.50;31.30;;;;;;487364;243;949;-77
2021/12/18 09:26:57;;;;;;;;;;;19.20;31.80;;;;;;487289;243;2142;-77
2021/12/18 09:28:59;;;;;;;;;;;19.20;32.10;;;;;;487343;243;1023;-77
2021/12/18 09:31:00;;;;;;;;;;;19.60;31.40;;;;;;487354;243;1125;-77
2021/12/18 09:33:01;;;;;;;;;;;19.40;31.60;;;;;;487429;242;960;-77
2021/12/18 09:35:03;;;;;;;;;;;19.30;31.80;;;;;;487405;243;982;-76
2021/12/18 09:37:04;;;;;;;;;;;19.20;32.00;;;;;;487449;242;1132;-76
2021/12/18 09:39:05;;;;;;;;;;;19.10;32.10;;;;;;487414;242;1034;-76
2021/12/18 09:41:07;;;;;;;;;;;19.10;32.10;;;;;;487379;241;1195;-77
2021/12/18 09:43:08;;;;;;;;;;;19.10;32.20;;;;;;487384;243;1062;-77
2021/12/18 09:45:09;;;;;;;;;;;19.10;32.10;;;;;;487375;243;1055;-77
2021/12/18 09:47:11;;;;;;;;;;;19.20;32.00;;;;;;487214;244;2198;-77
2021/12/18 09:49:12;;;;;;;;;;;19.10;32.10;;;;;;487418;242;969;-77
2021/12/18 09:51:21;;;;;;;;;;;19.10;32.10;;;;;;487383;244;1117;-77
2021/12/18 09:53:15;;;;;;;;;;;19.20;31.80;;;;;;487392;243;1401;-77
2021/12/18 09:55:17;;;;;;;;;;;19.20;31.90;;;;;;487265;245;1052;-77
2021/12/18 09:57:17;;;;;;;;;;;19.00;32.10;;;;;;487307;242;1496;-77
2021/12/18 09:59:19;;;;;;;;;;;19.00;32.10;;;;;;487221;245;1136;-77
2021/12/18 10:01:20;;;;;;;;;;;19.30;31.90;;;;;;487301;243;1199;-77
2021/12/18 10:03:21;;;;;;;;;;;19.20;31.70;;;;;;487423;243;1046;-77
2021/12/18 10:05:23;;;;;;;;;;;19.10;31.80;;;;;;487174;245;1040;-77
2021/12/18 10:07:24;;;;;;;;;;;19.00;32.00;;;;;;487277;244;2123;-77
2021/12/18 10:09:25;;;;;;;;;;;19.00;32.10;;;;;;487376;244;1054;-77
2021/12/18 10:11:27;;;;;;;;;;;19.30;31.90;;;;;;487435;243;1308;-77
2021/12/18 10:13:28;;;;;;;;;;;19.30;31.60;;;;;;487380;243;1034;-77
2021/12/18 10:15:29;;;;;;;;;;;19.20;31.80;;;;;;487398;243;1119;-77
2021/12/18 10:17:30;;;;;;;;;;;19.20;31.80;;;;;;487380;243;1122;-77
2021/12/18 10:19:32;;;;;;;;;;;19.10;31.80;;;;;;487377;242;970;-77
2021/12/18 10:21:33;;;;;;;;;;;19.10;32.00;;;;;;487352;242;1201;-77
2021/12/18 10:23:34;;;;;;;;;;;19.40;31.40;;;;;;487433;243;961;-77
2021/12/18 10:25:36;;;;;;;;;;;19.30;31.50;;;;;;487462;243;1198;-77
2021/12/18 10:27:38;;;;;;;;;;;19.10;31.70;;;;;;487390;242;2207;-77
2021/12/18 10:29:38;;;;;;;;;;;19.10;32.00;;;;;;487490;242;1376;-77
2021/12/18 10:31:40;;;;;;;;;;;19.50;31.40;;;;;;487305;242;1245;-77
2021/12/18 10:33:41;;;;;;;;;;;19.20;31.60;;;;;;487400;243;1018;-77
2021/12/18 10:35:43;;;;;;;;;;;19.10;31.80;;;;;;487456;243;1151;-77
2021/12/18 10:37:44;;;;;;;;;;;19.00;32.00;;;;;;487366;243;1121;-77
2021/12/18 10:39:45;;;;;;;;;;;19.00;32.10;;;;;;487439;243;1046;-77
2021/12/18 10:41:46;;;;;;;;;;;19.10;32.00;;;;;;487347;243;1197;-77
2021/12/18 10:43:48;;;;;;;;;;;19.10;31.70;;;;;;487380;244;1069;-77
2021/12/18 10:45:49;;;;;;;;;;;19.10;31.90;;;;;;487331;243;1171;-77
2021/12/18 10:47:50;;;;;;;;;;;19.10;31.80;;;;;;487347;242;2150;-76
2021/12/18 10:49:52;;;;;;;;;;;19.10;31.80;;;;;;487385;243;1075;-77
2021/12/18 10:51:53;;;;;;;;;;;19.00;31.90;;;;;;487283;243;1312;-77
2021/12/18 10:53:54;;;;;;;;;;;19.30;31.60;;;;;;487355;242;1081;-77
2021/12/18 10:55:56;;;;;;;;;;;19.20;31.60;;;;;;487291;240;1215;-77
2021/12/18 10:57:57;;;;;;;;;;;19.00;31.80;;;;;;487413;242;1117;-77
2021/12/18 10:59:58;;;;;;;;;;;19.20;31.80;;;;;;487432;242;1120;-77
2021/12/18 11:02:00;;;;;;;;;;;19.30;31.40;;;;;;487258;242;1465;-77
2021/12/18 11:04:01;;;;;;;;;;;19.20;31.50;;;;;;487318;242;1116;-77
2021/12/18 11:06:02;;;;;;;;;;;19.10;31.70;;;;;;487312;243;1080;-77
2021/12/18 11:08:04;;;;;;;;;;;19.10;31.80;;;;;;487365;242;2194;-77
2021/12/18 11:10:13;;;;;;;;;;;19.00;31.80;;;;;;487375;242;936;-77
2021/12/18 11:14:31;;;;;;;;;;;19.10;31.50;;;;;;487419;242;1023;-77
2021/12/18 11:16:35;;;;;;;;;;;19.10;31.60;;;;;;487264;242;1222;-77
2021/12/18 11:18:34;;;;;;;;;;;19.10;31.60;;;;;;487333;244;1421;-77
2021/12/18 11:20:35;;;;;;;;;;;19.00;31.70;;;;;;487350;244;1050;-77
2021/12/18 11:22:36;;;;;;;;;;;19.30;31.70;;;;;;487301;242;1181;-76
2021/12/18 11:24:38;;;;;;;;;;;19.30;31.30;;;;;;487286;243;1050;-76
2021/12/18 11:26:41;;;;;;;;;;;19.10;31.50;;;;;;487354;243;1122;-76
2021/12/18 11:28:41;;;;;;;;;;;19.00;31.60;;;;;;487229;244;2139;-77
2021/12/18 11:30:42;;;;;;;;;;;19.60;31.30;;;;;;487433;243;1178;-77
2021/12/18 11:32:44;;;;;;;;;;;19.40;31.20;;;;;;487386;243;1130;-77
2021/12/18 11:34:45;;;;;;;;;;;19.30;31.10;;;;;;487397;243;965;-77
2021/12/18 11:36:46;;;;;;;;;;;19.20;31.40;;;;;;487292;243;1282;-77
2021/12/18 11:38:48;;;;;;;;;;;19.10;31.50;;;;;;487575;243;975;-77
2021/12/18 11:40:49;;;;;;;;;;;19.10;31.60;;;;;;487349;243;1073;-77
2021/12/18 11:42:50;;;;;;;;;;;19.20;31.50;;;;;;487342;243;1166;-77
2021/12/18 11:44:52;;;;;;;;;;;19.10;31.60;;;;;;487396;243;1151;-77
2021/12/18 11:46:53;;;;;;;;;;;19.10;31.50;;;;;;487274;244;1070;-77
2021/12/18 11:48:55;;;;;;;;;;;19.10;31.60;;;;;;487408;243;2146;-77
2021/12/18 11:50:56;;;;;;;;;;;19.10;31.50;;;;;;487288;245;1105;-77
2021/12/18 11:52:57;;;;;;;;;;;19.30;31.40;;;;;;487217;245;1070;-77
2021/12/18 11:54:59;;;;;;;;;;;19.30;31.20;;;;;;487322;244;1075;-77
2021/12/18 11:57:00;;;;;;;;;;;19.10;31.40;;;;;;487295;243;1132;-77
2021/12/18 11:59:01;;;;;;;;;;;19.00;31.60;;;;;;487587;243;995;-76
2021/12/18 12:01:04;;;;;;;;;;;19.30;31.40;;;;;;487295;244;1078;-76
2021/12/18 12:03:04;;;;;;;;;;;19.30;31.20;;;;;;487278;243;1328;-76
2021/12/18 12:05:05;;;;;;;;;;;19.20;31.30;;;;;;487375;243;1097;-77
2021/12/18 12:07:07;;;;;;;;;;;19.10;31.50;;;;;;487301;243;1296;-76
2021/12/18 12:09:08;;;;;;;;;;;19.00;31.60;;;;;;487351;243;2186;-76
2021/12/18 12:11:15;;;;;;;;;;;19.00;31.70;;;;;;487324;243;1125;-76
2021/12/18 12:13:11;;;;;;;;;;;19.00;31.70;;;;;;487065;244;1355;-76
2021/12/18 12:15:13;;;;;;;;;;;19.00;31.70;;;;;;487379;243;976;-76
2021/12/18 12:17:15;;;;;;;;;;;18.90;31.60;;;;;;487415;243;1146;-76
2021/12/18 12:19:16;;;;;;;;;;;19.00;31.60;;;;;;487452;243;1183;-76
2021/12/18 12:21:17;;;;;;;;;;;19.00;31.60;;;;;;487356;242;1191;-77
2021/12/18 12:23:19;;;;;;;;;;;19.30;31.20;;;;;;487289;244;1055;-77
2021/12/18 12:25:20;;;;;;;;;;;19.30;31.10;;;;;;487372;242;1270;-77
2021/12/18 12:27:21;;;;;;;;;;;19.20;31.30;;;;;;487278;243;1056;-77
2021/12/18 12:29:22;;;;;;;;;;;19.10;31.40;;;;;;487365;243;2124;-77
2021/12/18 12:31:24;;;;;;;;;;;19.70;30.70;;;;;;487324;242;1191;-77